sensor_id;sensor_type;location;lat;lon;timestamp;P1;durP1;ratioP1;P2;durP2;ratioP2
67185;SDS011;54116;53.518;49.398;2023-11-19T00:01:23;8.55;;;2.25;;
67185;SDS011;54116;53.518;49.398;2023-11-19T00:03:49;10.18;;;2.13;;
67185;SDS011;54116;53.518;49.398;2023-11-19T00:06:15;9.00;;;2.70;;
67185;SDS011;54116;53.518;49.398;2023-11-19T00:08:42;10.73;;;2.28;;
67185;SDS011;54116;53.518;49.398;2023-11-19T00:11:11;4.90;;;2.13;;
67185;SDS011;54116;53.518;49.398;2023-11-19T00:13:40;6.68;;;2.45;;
67185;SDS011;54116;53.518;49.398;2023-11-19T00:16:07;8.57;;;1.90;;
67185;SDS011;54116;53.518;49.398;2023-11-19T00:18:35;4.93;;;1.77;;
67185;SDS011;54116;53.518;49.398;2023-11-19T00:21:05;6.70;;;1.70;;
67185;SDS011;54116;53.518;49.398;2023-11-19T00:23:31;5.07;;;1.77;;
67185;SDS011;54116;53.518;49.398;2023-11-19T00:25:57;6.78;;;2.00;;
67185;SDS011;54116;53.518;49.398;2023-11-19T00:28:23;5.22;;;1.75;;
67185;SDS011;54116;53.518;49.398;2023-11-19T00:30:50;4.60;;;1.80;;
67185;SDS011;54116;53.518;49.398;2023-11-19T00:33:16;5.35;;;2.20;;
67185;SDS011;54116;53.518;49.398;2023-11-19T00:35:42;8.48;;;2.15;;
67185;SDS011;54116;53.518;49.398;2023-11-19T00:38:09;7.93;;;1.83;;
67185;SDS011;54116;53.518;49.398;2023-11-19T00:40:35;5.00;;;1.88;;
67185;SDS011;54116;53.518;49.398;2023-11-19T00:43:00;6.63;;;2.20;;
67185;SDS011;54116;53.518;49.398;2023-11-19T00:45:26;5.80;;;1.88;;
67185;SDS011;54116;53.518;49.398;2023-11-19T00:47:53;8.82;;;2.33;;
67185;SDS011;54116;53.518;49.398;2023-11-19T00:50:20;8.27;;;2.00;;
67185;SDS011;54116;53.518;49.398;2023-11-19T00:52:45;5.57;;;1.95;;
67185;SDS011;54116;53.518;49.398;2023-11-19T00:55:12;6.72;;;2.08;;
67185;SDS011;54116;53.518;49.398;2023-11-19T00:57:38;5.38;;;1.77;;
67185;SDS011;54116;53.518;49.398;2023-11-19T01:00:05;4.82;;;1.67;;
67185;SDS011;54116;53.518;49.398;2023-11-19T01:02:44;6.40;;;1.85;;
67185;SDS011;54116;53.518;49.398;2023-11-19T01:05:11;5.40;;;1.92;;
67185;SDS011;54116;53.518;49.398;2023-11-19T01:07:39;7.43;;;2.13;;
67185;SDS011;54116;53.518;49.398;2023-11-19T01:10:05;4.10;;;1.70;;
67185;SDS011;54116;53.518;49.398;2023-11-19T01:12:34;5.70;;;2.00;;
67185;SDS011;54116;53.518;49.398;2023-11-19T01:14:59;6.78;;;1.88;;
67185;SDS011;54116;53.518;49.398;2023-11-19T01:19:52;11.55;;;1.92;;
67185;SDS011;54116;53.518;49.398;2023-11-19T01:22:18;7.47;;;1.63;;
67185;SDS011;54116;53.518;49.398;2023-11-19T01:24:44;4.05;;;1.40;;
67185;SDS011;54116;53.518;49.398;2023-11-19T01:27:10;4.20;;;1.45;;
67185;SDS011;54116;53.518;49.398;2023-11-19T01:29:36;5.45;;;1.58;;
67185;SDS011;54116;53.518;49.398;2023-11-19T01:32:03;8.45;;;1.65;;
67185;SDS011;54116;53.518;49.398;2023-11-19T01:34:30;5.75;;;1.73;;
67185;SDS011;54116;53.518;49.398;2023-11-19T01:36:56;6.07;;;1.67;;
67185;SDS011;54116;53.518;49.398;2023-11-19T01:39:22;9.32;;;1.90;;
67185;SDS011;54116;53.518;49.398;2023-11-19T01:41:47;5.70;;;1.60;;
67185;SDS011;54116;53.518;49.398;2023-11-19T01:44:14;5.65;;;1.77;;
67185;SDS011;54116;53.518;49.398;2023-11-19T01:46:44;5.93;;;1.70;;
67185;SDS011;54116;53.518;49.398;2023-11-19T01:51:40;7.70;;;1.50;;
67185;SDS011;54116;53.518;49.398;2023-11-19T01:54:07;4.07;;;1.30;;
67185;SDS011;54116;53.518;49.398;2023-11-19T01:56:35;4.60;;;1.45;;
67185;SDS011;54116;53.518;49.398;2023-11-19T01:59:02;7.05;;;2.13;;
67185;SDS011;54116;53.518;49.398;2023-11-19T02:03:55;5.28;;;1.52;;
67185;SDS011;54116;53.518;49.398;2023-11-19T02:06:21;4.90;;;1.90;;
67185;SDS011;54116;53.518;49.398;2023-11-19T02:08:48;4.93;;;1.65;;
67185;SDS011;54116;53.518;49.398;2023-11-19T02:11:15;6.93;;;1.60;;
67185;SDS011;54116;53.518;49.398;2023-11-19T02:13:41;5.53;;;1.52;;
67185;SDS011;54116;53.518;49.398;2023-11-19T02:16:09;5.93;;;1.60;;
67185;SDS011;54116;53.518;49.398;2023-11-19T02:18:36;8.63;;;2.08;;
67185;SDS011;54116;53.518;49.398;2023-11-19T02:21:03;7.15;;;2.05;;
67185;SDS011;54116;53.518;49.398;2023-11-19T02:23:30;7.32;;;1.50;;
67185;SDS011;54116;53.518;49.398;2023-11-19T02:28:28;4.60;;;1.70;;
67185;SDS011;54116;53.518;49.398;2023-11-19T02:30:54;5.30;;;1.38;;
67185;SDS011;54116;53.518;49.398;2023-11-19T02:33:20;8.93;;;1.75;;
67185;SDS011;54116;53.518;49.398;2023-11-19T02:35:46;4.43;;;1.55;;
67185;SDS011;54116;53.518;49.398;2023-11-19T02:38:12;6.90;;;1.92;;
67185;SDS011;54116;53.518;49.398;2023-11-19T02:40:39;5.47;;;1.48;;
67185;SDS011;54116;53.518;49.398;2023-11-19T02:43:05;4.78;;;1.70;;
67185;SDS011;54116;53.518;49.398;2023-11-19T02:45:31;7.35;;;1.60;;
67185;SDS011;54116;53.518;49.398;2023-11-19T02:47:59;6.60;;;2.20;;
67185;SDS011;54116;53.518;49.398;2023-11-19T02:50:27;7.03;;;1.77;;
67185;SDS011;54116;53.518;49.398;2023-11-19T02:52:54;5.00;;;1.55;;
67185;SDS011;54116;53.518;49.398;2023-11-19T02:55:24;6.43;;;1.52;;
67185;SDS011;54116;53.518;49.398;2023-11-19T02:57:51;8.15;;;1.95;;
67185;SDS011;54116;53.518;49.398;2023-11-19T03:00:19;6.50;;;1.80;;
67185;SDS011;54116;53.518;49.398;2023-11-19T03:02:53;7.28;;;1.90;;
67185;SDS011;54116;53.518;49.398;2023-11-19T03:05:25;8.80;;;1.90;;
67185;SDS011;54116;53.518;49.398;2023-11-19T03:07:55;8.98;;;1.80;;
67185;SDS011;54116;53.518;49.398;2023-11-19T03:10:22;6.40;;;1.65;;
67185;SDS011;54116;53.518;49.398;2023-11-19T03:15:15;5.55;;;1.70;;
67185;SDS011;54116;53.518;49.398;2023-11-19T03:17:42;6.45;;;1.52;;
67185;SDS011;54116;53.518;49.398;2023-11-19T03:20:09;6.28;;;2.05;;
67185;SDS011;54116;53.518;49.398;2023-11-19T03:22:37;8.98;;;1.55;;
67185;SDS011;54116;53.518;49.398;2023-11-19T03:25:03;9.15;;;1.85;;
67185;SDS011;54116;53.518;49.398;2023-11-19T03:27:30;8.52;;;2.00;;
67185;SDS011;54116;53.518;49.398;2023-11-19T03:29:57;6.75;;;1.95;;
67185;SDS011;54116;53.518;49.398;2023-11-19T03:32:23;13.82;;;2.25;;
67185;SDS011;54116;53.518;49.398;2023-11-19T03:34:50;8.93;;;1.92;;
67185;SDS011;54116;53.518;49.398;2023-11-19T03:37:16;6.53;;;1.85;;
67185;SDS011;54116;53.518;49.398;2023-11-19T03:42:09;7.18;;;1.63;;
67185;SDS011;54116;53.518;49.398;2023-11-19T03:44:35;9.05;;;2.00;;
67185;SDS011;54116;53.518;49.398;2023-11-19T03:47:01;4.38;;;1.55;;
67185;SDS011;54116;53.518;49.398;2023-11-19T03:49:28;5.55;;;1.30;;
67185;SDS011;54116;53.518;49.398;2023-11-19T03:51:54;4.38;;;1.77;;
67185;SDS011;54116;53.518;49.398;2023-11-19T03:54:21;7.93;;;1.25;;
67185;SDS011;54116;53.518;49.398;2023-11-19T03:56:48;8.10;;;1.83;;
67185;SDS011;54116;53.518;49.398;2023-11-19T03:59:15;5.57;;;1.98;;
67185;SDS011;54116;53.518;49.398;2023-11-19T04:01:41;4.22;;;1.40;;
67185;SDS011;54116;53.518;49.398;2023-11-19T04:04:08;4.25;;;1.33;;
67185;SDS011;54116;53.518;49.398;2023-11-19T04:06:34;5.13;;;1.40;;
67185;SDS011;54116;53.518;49.398;2023-11-19T04:09:00;4.45;;;1.63;;
67185;SDS011;54116;53.518;49.398;2023-11-19T04:11:27;7.45;;;1.58;;
67185;SDS011;54116;53.518;49.398;2023-11-19T04:13:53;6.10;;;1.75;;
67185;SDS011;54116;53.518;49.398;2023-11-19T04:16:25;8.70;;;2.13;;
67185;SDS011;54116;53.518;49.398;2023-11-19T04:21:19;8.95;;;1.70;;
67185;SDS011;54116;53.518;49.398;2023-11-19T04:23:46;5.60;;;1.60;;
67185;SDS011;54116;53.518;49.398;2023-11-19T04:26:12;4.93;;;1.60;;
67185;SDS011;54116;53.518;49.398;2023-11-19T04:28:38;4.50;;;1.60;;
67185;SDS011;54116;53.518;49.398;2023-11-19T04:31:04;4.63;;;1.35;;
67185;SDS011;54116;53.518;49.398;2023-11-19T04:33:31;4.75;;;1.55;;
67185;SDS011;54116;53.518;49.398;2023-11-19T04:35:57;5.85;;;1.40;;
67185;SDS011;54116;53.518;49.398;2023-11-19T04:38:24;7.68;;;1.83;;
67185;SDS011;54116;53.518;49.398;2023-11-19T04:40:52;3.60;;;1.20;;
67185;SDS011;54116;53.518;49.398;2023-11-19T04:43:18;8.07;;;1.58;;
67185;SDS011;54116;53.518;49.398;2023-11-19T04:45:45;7.97;;;1.90;;
67185;SDS011;54116;53.518;49.398;2023-11-19T04:48:12;6.88;;;1.45;;
67185;SDS011;54116;53.518;49.398;2023-11-19T04:50:38;5.65;;;1.30;;
67185;SDS011;54116;53.518;49.398;2023-11-19T04:53:04;4.45;;;1.27;;
67185;SDS011;54116;53.518;49.398;2023-11-19T04:55:30;3.90;;;1.20;;
67185;SDS011;54116;53.518;49.398;2023-11-19T04:57:56;5.03;;;1.23;;
67185;SDS011;54116;53.518;49.398;2023-11-19T05:00:22;4.78;;;1.02;;
67185;SDS011;54116;53.518;49.398;2023-11-19T05:02:48;3.05;;;1.02;;
67185;SDS011;54116;53.518;49.398;2023-11-19T05:05:15;6.03;;;1.33;;
67185;SDS011;54116;53.518;49.398;2023-11-19T05:07:41;4.35;;;1.25;;
67185;SDS011;54116;53.518;49.398;2023-11-19T05:10:07;6.80;;;1.45;;
67185;SDS011;54116;53.518;49.398;2023-11-19T05:12:34;2.17;;;0.93;;
67185;SDS011;54116;53.518;49.398;2023-11-19T05:15:00;5.40;;;1.00;;
67185;SDS011;54116;53.518;49.398;2023-11-19T05:17:26;3.70;;;0.90;;
67185;SDS011;54116;53.518;49.398;2023-11-19T05:19:52;3.38;;;1.10;;
67185;SDS011;54116;53.518;49.398;2023-11-19T05:22:18;4.28;;;1.13;;
67185;SDS011;54116;53.518;49.398;2023-11-19T05:24:46;3.75;;;1.00;;
67185;SDS011;54116;53.518;49.398;2023-11-19T05:27:13;2.83;;;0.95;;
67185;SDS011;54116;53.518;49.398;2023-11-19T05:29:39;3.58;;;1.15;;
67185;SDS011;54116;53.518;49.398;2023-11-19T05:32:06;3.67;;;1.33;;
67185;SDS011;54116;53.518;49.398;2023-11-19T05:34:32;3.25;;;1.17;;
67185;SDS011;54116;53.518;49.398;2023-11-19T05:36:58;6.00;;;1.30;;
67185;SDS011;54116;53.518;49.398;2023-11-19T05:39:25;2.40;;;0.88;;
67185;SDS011;54116;53.518;49.398;2023-11-19T05:41:51;4.63;;;1.10;;
67185;SDS011;54116;53.518;49.398;2023-11-19T05:44:17;6.60;;;1.10;;
67185;SDS011;54116;53.518;49.398;2023-11-19T05:46:44;5.60;;;1.30;;
67185;SDS011;54116;53.518;49.398;2023-11-19T05:49:11;4.38;;;1.23;;
67185;SDS011;54116;53.518;49.398;2023-11-19T05:51:38;4.35;;;1.10;;
67185;SDS011;54116;53.518;49.398;2023-11-19T05:54:06;2.78;;;1.00;;
67185;SDS011;54116;53.518;49.398;2023-11-19T05:56:33;4.53;;;1.13;;
67185;SDS011;54116;53.518;49.398;2023-11-19T05:58:59;3.53;;;1.13;;
67185;SDS011;54116;53.518;49.398;2023-11-19T06:01:26;6.32;;;1.60;;
67185;SDS011;54116;53.518;49.398;2023-11-19T06:03:53;5.22;;;1.67;;
67185;SDS011;54116;53.518;49.398;2023-11-19T06:06:20;4.63;;;1.65;;
67185;SDS011;54116;53.518;49.398;2023-11-19T06:08:46;4.28;;;1.63;;
67185;SDS011;54116;53.518;49.398;2023-11-19T06:11:12;3.65;;;1.50;;
67185;SDS011;54116;53.518;49.398;2023-11-19T06:13:44;8.27;;;1.70;;
67185;SDS011;54116;53.518;49.398;2023-11-19T06:16:10;5.50;;;1.55;;
67185;SDS011;54116;53.518;49.398;2023-11-19T06:18:37;5.38;;;1.63;;
67185;SDS011;54116;53.518;49.398;2023-11-19T06:21:04;5.82;;;1.55;;
67185;SDS011;54116;53.518;49.398;2023-11-19T06:23:30;7.40;;;1.55;;
67185;SDS011;54116;53.518;49.398;2023-11-19T06:25:57;8.82;;;1.60;;
67185;SDS011;54116;53.518;49.398;2023-11-19T06:28:23;3.28;;;1.27;;
67185;SDS011;54116;53.518;49.398;2023-11-19T06:30:50;7.03;;;1.75;;
67185;SDS011;54116;53.518;49.398;2023-11-19T06:33:16;5.68;;;1.52;;
67185;SDS011;54116;53.518;49.398;2023-11-19T06:35:43;3.92;;;1.52;;
67185;SDS011;54116;53.518;49.398;2023-11-19T06:38:10;5.22;;;1.52;;
67185;SDS011;54116;53.518;49.398;2023-11-19T06:40:36;5.80;;;1.30;;
67185;SDS011;54116;53.518;49.398;2023-11-19T06:43:03;6.30;;;1.77;;
67185;SDS011;54116;53.518;49.398;2023-11-19T06:45:29;4.90;;;1.80;;
67185;SDS011;54116;53.518;49.398;2023-11-19T06:47:56;7.20;;;1.80;;
67185;SDS011;54116;53.518;49.398;2023-11-19T06:50:22;4.80;;;1.92;;
67185;SDS011;54116;53.518;49.398;2023-11-19T06:52:49;6.78;;;1.55;;
67185;SDS011;54116;53.518;49.398;2023-11-19T06:55:15;6.57;;;1.75;;
67185;SDS011;54116;53.518;49.398;2023-11-19T06:57:42;3.97;;;1.42;;
67185;SDS011;54116;53.518;49.398;2023-11-19T07:00:08;4.82;;;1.73;;
67185;SDS011;54116;53.518;49.398;2023-11-19T07:02:36;5.10;;;1.67;;
67185;SDS011;54116;53.518;49.398;2023-11-19T07:05:03;8.90;;;1.83;;
67185;SDS011;54116;53.518;49.398;2023-11-19T07:07:33;8.63;;;1.40;;
67185;SDS011;54116;53.518;49.398;2023-11-19T07:10:01;6.63;;;1.95;;
67185;SDS011;54116;53.518;49.398;2023-11-19T07:12:28;5.45;;;2.10;;
67185;SDS011;54116;53.518;49.398;2023-11-19T07:14:54;5.82;;;1.90;;
67185;SDS011;54116;53.518;49.398;2023-11-19T07:17:21;4.88;;;1.60;;
67185;SDS011;54116;53.518;49.398;2023-11-19T07:19:49;7.78;;;2.80;;
67185;SDS011;54116;53.518;49.398;2023-11-19T07:22:16;12.35;;;4.20;;
67185;SDS011;54116;53.518;49.398;2023-11-19T07:24:43;14.38;;;4.20;;
67185;SDS011;54116;53.518;49.398;2023-11-19T07:27:09;10.30;;;3.50;;
67185;SDS011;54116;53.518;49.398;2023-11-19T07:29:35;7.28;;;2.42;;
67185;SDS011;54116;53.518;49.398;2023-11-19T07:32:01;12.07;;;3.45;;
67185;SDS011;54116;53.518;49.398;2023-11-19T07:34:28;10.40;;;2.97;;
67185;SDS011;54116;53.518;49.398;2023-11-19T07:36:54;7.20;;;2.40;;
67185;SDS011;54116;53.518;49.398;2023-11-19T07:39:25;8.82;;;2.67;;
67185;SDS011;54116;53.518;49.398;2023-11-19T07:41:51;7.32;;;2.50;;
67185;SDS011;54116;53.518;49.398;2023-11-19T07:44:17;8.00;;;2.83;;
67185;SDS011;54116;53.518;49.398;2023-11-19T07:46:44;7.25;;;3.20;;
67185;SDS011;54116;53.518;49.398;2023-11-19T07:49:10;10.57;;;3.40;;
67185;SDS011;54116;53.518;49.398;2023-11-19T07:51:37;11.05;;;4.30;;
67185;SDS011;54116;53.518;49.398;2023-11-19T07:54:04;8.32;;;3.10;;
67185;SDS011;54116;53.518;49.398;2023-11-19T07:56:31;8.32;;;2.80;;
67185;SDS011;54116;53.518;49.398;2023-11-19T07:59:00;6.43;;;2.90;;
67185;SDS011;54116;53.518;49.398;2023-11-19T08:01:26;7.95;;;3.30;;
67185;SDS011;54116;53.518;49.398;2023-11-19T08:03:52;5.10;;;2.13;;
67185;SDS011;54116;53.518;49.398;2023-11-19T08:06:19;5.60;;;2.13;;
67185;SDS011;54116;53.518;49.398;2023-11-19T08:11:13;10.82;;;3.17;;
67185;SDS011;54116;53.518;49.398;2023-11-19T08:13:40;10.27;;;3.03;;
67185;SDS011;54116;53.518;49.398;2023-11-19T08:16:07;7.35;;;3.22;;
67185;SDS011;54116;53.518;49.398;2023-11-19T08:18:35;7.30;;;2.72;;
67185;SDS011;54116;53.518;49.398;2023-11-19T08:21:01;4.93;;;2.30;;
67185;SDS011;54116;53.518;49.398;2023-11-19T08:23:30;8.00;;;2.60;;
67185;SDS011;54116;53.518;49.398;2023-11-19T08:25:56;24.25;;;9.00;;
67185;SDS011;54116;53.518;49.398;2023-11-19T08:28:23;19.20;;;8.40;;
67185;SDS011;54116;53.518;49.398;2023-11-19T08:30:49;21.17;;;7.70;;
67185;SDS011;54116;53.518;49.398;2023-11-19T08:33:15;17.30;;;8.15;;
67185;SDS011;54116;53.518;49.398;2023-11-19T08:35:42;6.90;;;2.88;;
67185;SDS011;54116;53.518;49.398;2023-11-19T08:38:09;18.55;;;12.15;;
67185;SDS011;54116;53.518;49.398;2023-11-19T08:40:35;7.45;;;3.53;;
67185;SDS011;54116;53.518;49.398;2023-11-19T08:43:01;16.00;;;5.72;;
67185;SDS011;54116;53.518;49.398;2023-11-19T08:45:27;7.50;;;2.70;;
67185;SDS011;54116;53.518;49.398;2023-11-19T08:47:54;15.50;;;6.90;;
67185;SDS011;54116;53.518;49.398;2023-11-19T08:50:20;12.32;;;8.07;;
67185;SDS011;54116;53.518;49.398;2023-11-19T08:52:46;9.80;;;3.70;;
67185;SDS011;54116;53.518;49.398;2023-11-19T08:55:12;12.30;;;4.88;;
67185;SDS011;54116;53.518;49.398;2023-11-19T08:57:39;21.17;;;11.35;;
67185;SDS011;54116;53.518;49.398;2023-11-19T09:00:05;8.95;;;3.33;;
67185;SDS011;54116;53.518;49.398;2023-11-19T09:02:35;6.43;;;2.70;;
67185;SDS011;54116;53.518;49.398;2023-11-19T09:05:02;8.25;;;4.07;;
67185;SDS011;54116;53.518;49.398;2023-11-19T09:07:29;6.85;;;2.42;;
67185;SDS011;54116;53.518;49.398;2023-11-19T09:09:55;5.25;;;2.40;;
67185;SDS011;54116;53.518;49.398;2023-11-19T09:12:21;8.65;;;3.40;;
67185;SDS011;54116;53.518;49.398;2023-11-19T09:14:47;7.25;;;2.60;;
67185;SDS011;54116;53.518;49.398;2023-11-19T09:17:14;11.90;;;5.32;;
67185;SDS011;54116;53.518;49.398;2023-11-19T09:19:41;8.38;;;2.80;;
67185;SDS011;54116;53.518;49.398;2023-11-19T09:22:07;7.45;;;3.47;;
67185;SDS011;54116;53.518;49.398;2023-11-19T09:24:33;10.27;;;2.83;;
67185;SDS011;54116;53.518;49.398;2023-11-19T09:27:00;6.78;;;1.85;;
67185;SDS011;54116;53.518;49.398;2023-11-19T09:29:26;30.92;;;19.63;;
67185;SDS011;54116;53.518;49.398;2023-11-19T09:31:52;7.25;;;2.70;;
67185;SDS011;54116;53.518;49.398;2023-11-19T09:34:18;35.22;;;21.60;;
67185;SDS011;54116;53.518;49.398;2023-11-19T09:36:44;9.77;;;3.17;;
67185;SDS011;54116;53.518;49.398;2023-11-19T09:39:10;5.72;;;2.30;;
67185;SDS011;54116;53.518;49.398;2023-11-19T09:41:40;7.68;;;2.85;;
67185;SDS011;54116;53.518;49.398;2023-11-19T09:44:07;7.78;;;2.50;;
67185;SDS011;54116;53.518;49.398;2023-11-19T09:46:35;9.60;;;2.47;;
67185;SDS011;54116;53.518;49.398;2023-11-19T09:49:02;7.10;;;2.55;;
67185;SDS011;54116;53.518;49.398;2023-11-19T09:51:30;11.18;;;2.88;;
67185;SDS011;54116;53.518;49.398;2023-11-19T09:53:56;7.40;;;2.97;;
67185;SDS011;54116;53.518;49.398;2023-11-19T09:56:23;6.03;;;2.72;;
67185;SDS011;54116;53.518;49.398;2023-11-19T09:58:49;7.90;;;2.60;;
67185;SDS011;54116;53.518;49.398;2023-11-19T10:01:15;27.15;;;11.70;;
67185;SDS011;54116;53.518;49.398;2023-11-19T10:03:42;17.77;;;7.35;;
67185;SDS011;54116;53.518;49.398;2023-11-19T10:06:09;11.70;;;4.68;;
67185;SDS011;54116;53.518;49.398;2023-11-19T10:08:37;18.70;;;8.82;;
67185;SDS011;54116;53.518;49.398;2023-11-19T10:11:09;15.25;;;6.80;;
67185;SDS011;54116;53.518;49.398;2023-11-19T10:13:38;15.20;;;6.70;;
67185;SDS011;54116;53.518;49.398;2023-11-19T10:16:12;44.42;;;22.08;;
67185;SDS011;54116;53.518;49.398;2023-11-19T10:18:45;49.95;;;27.10;;
67185;SDS011;54116;53.518;49.398;2023-11-19T10:21:17;16.88;;;9.25;;
67185;SDS011;54116;53.518;49.398;2023-11-19T10:24:02;18.13;;;9.85;;
67185;SDS011;54116;53.518;49.398;2023-11-19T10:26:28;12.38;;;5.47;;
67185;SDS011;54116;53.518;49.398;2023-11-19T10:28:55;53.92;;;21.58;;
67185;SDS011;54116;53.518;49.398;2023-11-19T10:31:22;38.67;;;17.33;;
67185;SDS011;54116;53.518;49.398;2023-11-19T10:33:52;43.00;;;17.88;;
67185;SDS011;54116;53.518;49.398;2023-11-19T10:36:18;341.60;;;123.95;;
67185;SDS011;54116;53.518;49.398;2023-11-19T10:38:55;532.03;;;193.90;;
67185;SDS011;54116;53.518;49.398;2023-11-19T10:41:32;252.90;;;94.00;;
67185;SDS011;54116;53.518;49.398;2023-11-19T10:43:59;34.35;;;13.90;;
67185;SDS011;54116;53.518;49.398;2023-11-19T10:46:41;14.00;;;7.72;;
67185;SDS011;54116;53.518;49.398;2023-11-19T10:49:09;320.80;;;106.13;;
67185;SDS011;54116;53.518;49.398;2023-11-19T10:51:36;61.20;;;22.13;;
67185;SDS011;54116;53.518;49.398;2023-11-19T10:54:10;24.13;;;9.07;;
67185;SDS011;54116;53.518;49.398;2023-11-19T10:56:39;16.38;;;5.82;;
67185;SDS011;54116;53.518;49.398;2023-11-19T10:59:07;25.30;;;9.55;;
67185;SDS011;54116;53.518;49.398;2023-11-19T11:01:42;210.90;;;76.18;;
67185;SDS011;54116;53.518;49.398;2023-11-19T11:04:14;79.63;;;32.38;;
67185;SDS011;54116;53.518;49.398;2023-11-19T11:06:45;10.93;;;5.72;;
67185;SDS011;54116;53.518;49.398;2023-11-19T11:09:13;14.48;;;5.75;;
67185;SDS011;54116;53.518;49.398;2023-11-19T11:11:41;12.25;;;6.03;;
67185;SDS011;54116;53.518;49.398;2023-11-19T11:14:12;19.90;;;7.68;;
67185;SDS011;54116;53.518;49.398;2023-11-19T11:16:42;30.92;;;12.50;;
67185;SDS011;54116;53.518;49.398;2023-11-19T11:19:10;149.35;;;53.53;;
67185;SDS011;54116;53.518;49.398;2023-11-19T11:21:38;107.93;;;38.20;;
67185;SDS011;54116;53.518;49.398;2023-11-19T11:38:10;63.63;;;26.08;;
67185;SDS011;54116;53.518;49.398;2023-11-19T11:40:38;19.30;;;9.95;;
67185;SDS011;54116;53.518;49.398;2023-11-19T11:49:03;21.15;;;11.35;;
67185;SDS011;54116;53.518;49.398;2023-11-19T11:54:10;21.65;;;8.73;;
67185;SDS011;54116;53.518;49.398;2023-11-19T11:56:37;21.73;;;8.65;;
67185;SDS011;54116;53.518;49.398;2023-11-19T11:59:07;16.00;;;7.97;;
67185;SDS011;54116;53.518;49.398;2023-11-19T12:01:34;13.57;;;6.30;;
67185;SDS011;54116;53.518;49.398;2023-11-19T12:04:00;14.02;;;6.50;;
67185;SDS011;54116;53.518;49.398;2023-11-19T12:06:27;15.20;;;6.00;;
67185;SDS011;54116;53.518;49.398;2023-11-19T12:08:59;15.20;;;6.22;;
67185;SDS011;54116;53.518;49.398;2023-11-19T12:11:25;14.15;;;5.60;;
67185;SDS011;54116;53.518;49.398;2023-11-19T12:13:54;21.95;;;9.45;;
67185;SDS011;54116;53.518;49.398;2023-11-19T12:16:23;20.50;;;9.68;;
67185;SDS011;54116;53.518;49.398;2023-11-19T12:18:49;20.23;;;7.93;;
67185;SDS011;54116;53.518;49.398;2023-11-19T12:21:28;15.18;;;5.03;;
67185;SDS011;54116;53.518;49.398;2023-11-19T12:26:35;13.25;;;5.68;;
67185;SDS011;54116;53.518;49.398;2023-11-19T12:29:03;16.20;;;5.43;;
67185;SDS011;54116;53.518;49.398;2023-11-19T12:31:29;15.40;;;4.75;;
67185;SDS011;54116;53.518;49.398;2023-11-19T12:33:56;11.35;;;4.72;;
67185;SDS011;54116;53.518;49.398;2023-11-19T12:36:24;12.52;;;6.25;;
67185;SDS011;54116;53.518;49.398;2023-11-19T12:38:50;15.00;;;6.38;;
67185;SDS011;54116;53.518;49.398;2023-11-19T12:41:16;15.30;;;6.07;;
67185;SDS011;54116;53.518;49.398;2023-11-19T12:43:46;12.43;;;4.60;;
67185;SDS011;54116;53.518;49.398;2023-11-19T12:46:21;10.25;;;4.60;;
67185;SDS011;54116;53.518;49.398;2023-11-19T12:48:49;11.15;;;4.68;;
67185;SDS011;54116;53.518;49.398;2023-11-19T12:53:49;12.65;;;5.95;;
67185;SDS011;54116;53.518;49.398;2023-11-19T12:56:18;14.30;;;5.50;;
67185;SDS011;54116;53.518;49.398;2023-11-19T12:58:44;10.48;;;4.57;;
67185;SDS011;54116;53.518;49.398;2023-11-19T13:03:41;14.45;;;5.80;;
67185;SDS011;54116;53.518;49.398;2023-11-19T13:06:13;20.27;;;5.95;;
67185;SDS011;54116;53.518;49.398;2023-11-19T13:08:41;28.13;;;10.55;;
67185;SDS011;54116;53.518;49.398;2023-11-19T13:11:09;27.95;;;10.95;;
67185;SDS011;54116;53.518;49.398;2023-11-19T13:16:20;25.98;;;10.88;;
67185;SDS011;54116;53.518;49.398;2023-11-19T13:18:46;25.08;;;8.10;;
67185;SDS011;54116;53.518;49.398;2023-11-19T13:21:14;20.48;;;8.80;;
67185;SDS011;54116;53.518;49.398;2023-11-19T13:23:40;20.17;;;9.52;;
67185;SDS011;54116;53.518;49.398;2023-11-19T13:26:06;19.95;;;7.78;;
67185;SDS011;54116;53.518;49.398;2023-11-19T13:28:33;18.10;;;7.10;;
67185;SDS011;54116;53.518;49.398;2023-11-19T13:30:59;16.17;;;6.50;;
67185;SDS011;54116;53.518;49.398;2023-11-19T13:35:52;18.38;;;5.53;;
67185;SDS011;54116;53.518;49.398;2023-11-19T13:38:18;19.27;;;7.50;;
67185;SDS011;54116;53.518;49.398;2023-11-19T13:40:44;19.88;;;8.18;;
67185;SDS011;54116;53.518;49.398;2023-11-19T13:43:10;14.48;;;5.85;;
67185;SDS011;54116;53.518;49.398;2023-11-19T13:45:37;24.90;;;7.03;;
67185;SDS011;54116;53.518;49.398;2023-11-19T13:48:03;27.85;;;7.70;;
67185;SDS011;54116;53.518;49.398;2023-11-19T13:50:29;17.20;;;6.50;;
67185;SDS011;54116;53.518;49.398;2023-11-19T13:52:55;18.48;;;6.25;;
67185;SDS011;54116;53.518;49.398;2023-11-19T13:55:21;21.83;;;7.35;;
67185;SDS011;54116;53.518;49.398;2023-11-19T13:57:48;18.73;;;6.70;;
67185;SDS011;54116;53.518;49.398;2023-11-19T14:00:14;16.08;;;5.25;;
67185;SDS011;54116;53.518;49.398;2023-11-19T14:02:45;20.17;;;6.15;;
67185;SDS011;54116;53.518;49.398;2023-11-19T14:05:12;17.88;;;5.82;;
67185;SDS011;54116;53.518;49.398;2023-11-19T14:07:40;20.20;;;5.55;;
67185;SDS011;54116;53.518;49.398;2023-11-19T14:10:07;16.50;;;5.22;;
67185;SDS011;54116;53.518;49.398;2023-11-19T14:12:39;19.83;;;5.90;;
67185;SDS011;54116;53.518;49.398;2023-11-19T14:15:06;22.45;;;5.45;;
67185;SDS011;54116;53.518;49.398;2023-11-19T14:17:33;22.20;;;5.63;;
67185;SDS011;54116;53.518;49.398;2023-11-19T14:20:00;18.73;;;4.97;;
67185;SDS011;54116;53.518;49.398;2023-11-19T14:22:26;16.92;;;5.55;;
67185;SDS011;54116;53.518;49.398;2023-11-19T14:24:52;15.15;;;5.53;;
67185;SDS011;54116;53.518;49.398;2023-11-19T14:29:45;14.98;;;5.18;;
67185;SDS011;54116;53.518;49.398;2023-11-19T14:32:11;19.35;;;5.70;;
67185;SDS011;54116;53.518;49.398;2023-11-19T14:34:37;18.48;;;5.63;;
67185;SDS011;54116;53.518;49.398;2023-11-19T14:37:03;14.40;;;5.28;;
67185;SDS011;54116;53.518;49.398;2023-11-19T14:39:29;14.98;;;6.13;;
67185;SDS011;54116;53.518;49.398;2023-11-19T14:41:57;19.48;;;6.18;;
67185;SDS011;54116;53.518;49.398;2023-11-19T14:44:26;15.80;;;5.43;;
67185;SDS011;54116;53.518;49.398;2023-11-19T14:46:54;27.05;;;6.18;;
67185;SDS011;54116;53.518;49.398;2023-11-19T14:49:20;13.77;;;5.00;;
67185;SDS011;54116;53.518;49.398;2023-11-19T14:51:46;21.42;;;5.63;;
67185;SDS011;54116;53.518;49.398;2023-11-19T14:54:13;13.88;;;4.80;;
67185;SDS011;54116;53.518;49.398;2023-11-19T14:56:41;14.88;;;5.07;;
67185;SDS011;54116;53.518;49.398;2023-11-19T14:59:07;22.08;;;7.07;;
67185;SDS011;54116;53.518;49.398;2023-11-19T15:01:33;18.70;;;5.40;;
67185;SDS011;54116;53.518;49.398;2023-11-19T15:03:59;18.40;;;5.25;;
67185;SDS011;54116;53.518;49.398;2023-11-19T15:06:25;18.35;;;5.40;;
67185;SDS011;54116;53.518;49.398;2023-11-19T15:08:52;16.38;;;5.53;;
67185;SDS011;54116;53.518;49.398;2023-11-19T15:11:20;18.70;;;5.25;;
67185;SDS011;54116;53.518;49.398;2023-11-19T15:13:46;15.35;;;6.35;;
67185;SDS011;54116;53.518;49.398;2023-11-19T15:16:12;23.02;;;6.28;;
67185;SDS011;54116;53.518;49.398;2023-11-19T15:18:40;36.03;;;6.57;;
67185;SDS011;54116;53.518;49.398;2023-11-19T15:25:59;32.83;;;7.18;;
67185;SDS011;54116;53.518;49.398;2023-11-19T15:28:25;24.58;;;6.85;;
67185;SDS011;54116;53.518;49.398;2023-11-19T15:30:51;23.80;;;6.70;;